Verret, Louisiana
Current Conditions -  °F | °C
As of 6:55 PM on Saturday 20 Dec 2014 (Local Time) from KNBG Reporting Station
Overcast Overcast  
Wind Chill: 53°   Ceiling: 1300
Heat Index: 53°   Visibility: 10mi
Dew Point: 48°   Wind: 8mph
Humidity: 83%   Direction: 40°NE
Pressure: 30.13"   Gusts: NA
Location:  29.8369°N, 89.7702°W
Report Text: KNBG 210055Z 04007KT 10SM OVC013 12/09 A3013 RMK AO2 SLP202 T01170089 $
Loading
Personal Weather Stations






























Interactive Weather Map New forecast layout! Learn more

10-Day Weather Forecast

Advertisements
Track Severe Weather on mobile